createdAt,value
2018-01-25T00:01:10.662Z,28.37
2018-01-25T00:03:38.933Z,27.73
2018-01-25T00:06:06.553Z,28.10
2018-01-25T00:08:34.242Z,26.40
2018-01-25T00:11:01.843Z,27.20
2018-01-25T00:13:29.460Z,27.53
2018-01-25T00:15:57.166Z,26.93
2018-01-25T00:18:24.811Z,26.53
2018-01-25T00:20:53.206Z,27.77
2018-01-25T00:23:20.879Z,27.83
2018-01-25T00:25:48.457Z,25.57
2018-01-25T00:28:16.069Z,25.97
2018-01-25T00:30:43.884Z,27.13
2018-01-25T00:33:11.469Z,25.60
2018-01-25T00:35:39.087Z,28.03
2018-01-25T00:38:06.776Z,26.30
2018-01-25T00:40:34.430Z,28.23
2018-01-25T00:43:02.054Z,28.20
2018-01-25T00:45:29.726Z,27.37
2018-01-25T00:47:57.873Z,28.80
2018-01-25T00:50:26.200Z,26.93
2018-01-25T00:52:53.895Z,27.43
2018-01-25T00:55:22.106Z,27.60
2018-01-25T00:57:49.890Z,28.07
2018-01-25T01:00:17.892Z,27.33
2018-01-25T01:02:45.902Z,26.63
2018-01-25T01:05:13.638Z,25.97
2018-01-25T01:07:41.432Z,27.60
2018-01-25T01:10:09.071Z,28.03
2018-01-25T01:12:36.712Z,28.00
2018-01-25T01:15:04.541Z,26.77
2018-01-25T01:17:32.349Z,26.23
2018-01-25T01:20:00.050Z,27.10
2018-01-25T01:22:27.790Z,28.07
2018-01-25T01:24:55.412Z,27.30
2018-01-25T01:27:23.214Z,27.40
2018-01-25T01:29:50.972Z,27.57
2018-01-25T01:32:18.680Z,28.87
2018-01-25T01:34:46.306Z,28.13
2018-01-25T01:37:13.884Z,26.77
2018-01-25T01:39:43.604Z,26.77
2018-01-25T01:42:11.322Z,26.00
2018-01-25T01:44:39.026Z,26.70
2018-01-25T01:47:06.885Z,25.27
2018-01-25T01:49:34.498Z,24.00
2018-01-25T01:52:02.326Z,26.60
2018-01-25T01:54:30.016Z,24.43
2018-01-25T01:56:58.094Z,26.27
2018-01-25T01:59:25.688Z,24.50
2018-01-25T02:01:53.376Z,25.40
2018-01-25T02:04:21.525Z,24.60
2018-01-25T02:06:49.138Z,26.47
2018-01-25T02:09:16.893Z,25.53
2018-01-25T02:11:44.554Z,24.00
2018-01-25T02:14:12.209Z,24.33
2018-01-25T02:16:39.996Z,25.37
2018-01-25T02:19:07.659Z,25.33
2018-01-25T02:21:35.322Z,25.90
2018-01-25T02:24:03.079Z,25.97
2018-01-25T02:26:31.291Z,24.10
2018-01-25T02:29:01.432Z,23.53
2018-01-25T02:31:29.256Z,24.00
2018-01-25T02:33:56.847Z,25.23
2018-01-25T02:36:24.467Z,24.13
2018-01-25T02:38:52.201Z,23.83
2018-01-25T02:41:20.089Z,24.90
2018-01-25T02:43:47.707Z,23.37
2018-01-25T02:46:15.437Z,22.80
2018-01-25T02:48:43.689Z,22.93
2018-01-25T02:51:11.503Z,21.63
2018-01-25T02:53:39.211Z,23.20
2018-01-25T02:56:07.311Z,23.77
2018-01-25T02:58:34.934Z,23.50
2018-01-25T03:01:02.696Z,22.73
2018-01-25T03:03:30.395Z,23.07
2018-01-25T03:05:58.024Z,23.87
2018-01-25T03:08:25.787Z,22.33
2018-01-25T03:10:53.435Z,22.33
2018-01-25T03:13:21.038Z,22.43
2018-01-25T03:15:48.739Z,23.83
2018-01-25T03:18:16.491Z,22.20
2018-01-25T03:20:44.090Z,20.70
2018-01-25T03:23:12.864Z,21.23
2018-01-25T03:25:40.497Z,22.27
2018-01-25T03:28:08.906Z,20.10
2018-01-25T03:30:36.686Z,20.77
2018-01-25T03:33:04.307Z,21.73
2018-01-25T03:35:31.939Z,21.43
2018-01-25T03:37:59.753Z,20.93
2018-01-25T03:40:27.436Z,21.70
2018-01-25T03:42:55.079Z,21.03
2018-01-25T03:45:33.614Z,20.27
2018-01-25T03:48:01.242Z,20.10
2018-01-25T03:50:28.933Z,20.57
2018-01-25T03:52:56.689Z,19.25
2018-01-25T03:55:24.504Z,21.40
2018-01-25T03:57:52.320Z,19.37
2018-01-25T04:00:20.106Z,19.77
2018-01-25T04:02:47.711Z,20.27
2018-01-25T04:05:15.333Z,22.10
2018-01-25T04:07:43.047Z,18.83
2018-01-25T04:10:10.688Z,19.20
2018-01-25T04:12:38.293Z,19.53
2018-01-25T04:15:06.083Z,21.83
2018-01-25T04:17:33.690Z,21.57
2018-01-25T04:20:02.703Z,22.43
2018-01-25T04:22:30.430Z,20.43
2018-01-25T04:24:58.039Z,20.10
2018-01-25T04:27:25.824Z,19.30
2018-01-25T04:29:54.574Z,19.95
2018-01-25T04:32:23.349Z,22.17
2018-01-25T04:34:51.423Z,21.50
2018-01-25T04:37:19.220Z,20.83
2018-01-25T04:39:46.919Z,21.20
2018-01-25T04:42:14.678Z,21.40
2018-01-25T04:44:42.298Z,20.43
2018-01-25T04:47:10.069Z,20.40
2018-01-25T04:49:37.702Z,21.52
2018-01-25T04:52:05.341Z,21.12
2018-01-25T04:54:34.123Z,21.85
2018-01-25T04:57:01.820Z,23.35
2018-01-25T04:59:29.514Z,21.37
2018-01-25T05:01:57.247Z,21.70
2018-01-25T05:04:24.847Z,22.52
2018-01-25T05:06:52.455Z,23.10
2018-01-25T05:09:20.786Z,21.60
2018-01-25T05:11:48.362Z,19.33
2018-01-25T05:14:15.901Z,45.05
2018-01-25T05:16:43.605Z,41.33
2018-01-25T05:19:11.412Z,38.55
2018-01-25T05:21:38.969Z,39.30
2018-01-25T05:24:07.046Z,37.33
2018-01-25T05:26:34.566Z,36.17
2018-01-25T05:29:02.140Z,32.85
2018-01-25T05:31:29.797Z,36.83
2018-01-25T05:33:57.612Z,35.92
2018-01-25T05:36:25.426Z,21.25
2018-01-25T05:38:53.126Z,32.25
2018-01-25T05:41:20.704Z,30.45
2018-01-25T05:43:48.265Z,31.37
2018-01-25T05:46:15.967Z,30.88
2018-01-25T05:48:43.482Z,32.85
2018-01-25T05:51:11.379Z,28.55
2018-01-25T05:53:39.064Z,29.75
2018-01-25T05:56:06.601Z,31.00
2018-01-25T05:58:34.164Z,30.52
2018-01-25T06:01:02.459Z,30.30
2018-01-25T06:03:30.282Z,30.85
2018-01-25T06:05:58.650Z,33.70
2018-01-25T06:08:26.306Z,32.38
2018-01-25T06:10:53.827Z,33.95
2018-01-25T06:13:21.410Z,33.80
2018-01-25T06:15:49.115Z,35.90
2018-01-25T06:18:16.672Z,35.78
2018-01-25T06:20:44.311Z,37.83
2018-01-25T06:23:11.977Z,41.03
2018-01-25T06:25:39.742Z,39.78
2018-01-25T06:28:07.293Z,37.95
2018-01-25T06:30:34.996Z,37.25
2018-01-25T06:33:02.547Z,37.80
2018-01-25T06:35:30.069Z,38.92
2018-01-25T06:37:57.755Z,40.22
2018-01-25T06:40:25.607Z,41.55
2018-01-25T06:42:53.373Z,42.88
2018-01-25T06:45:21.079Z,41.53
2018-01-25T06:47:48.667Z,44.47
2018-01-25T06:50:16.209Z,47.25
2018-01-25T06:52:43.893Z,43.90
2018-01-25T06:55:11.756Z,44.50
2018-01-25T06:57:39.297Z,43.00
2018-01-25T07:00:07.125Z,40.77
2018-01-25T07:02:34.697Z,40.43
2018-01-25T07:05:02.332Z,39.20
2018-01-25T07:07:30.018Z,38.33
2018-01-25T07:09:57.656Z,40.90
2018-01-25T07:12:25.258Z,40.37
2018-01-25T07:14:52.933Z,39.97
2018-01-25T07:17:20.529Z,44.33
2018-01-25T07:19:48.105Z,48.00
2018-01-25T07:22:15.905Z,48.30
2018-01-25T07:24:43.414Z,54.07
2018-01-25T07:27:10.932Z,66.13
2018-01-25T07:29:38.704Z,70.20
2018-01-25T07:32:06.349Z,69.00
2018-01-25T07:34:33.887Z,71.67
2018-01-25T07:37:01.421Z,89.30
2018-01-25T07:39:29.106Z,95.13
2018-01-25T07:41:56.645Z,95.50
2018-01-25T07:44:24.241Z,96.07
2018-01-25T07:46:51.926Z,90.80
2018-01-25T07:49:19.495Z,86.17
2018-01-25T07:51:47.082Z,87.43
2018-01-25T07:54:14.771Z,83.17
2018-01-25T07:56:42.361Z,79.30
2018-01-25T07:59:09.952Z,74.33
2018-01-25T08:01:37.673Z,75.47
2018-01-25T08:04:05.277Z,80.50
2018-01-25T08:06:32.878Z,79.57
2018-01-25T08:09:00.574Z,81.50
2018-01-25T08:11:28.170Z,78.13
2018-01-25T08:13:55.694Z,81.83
2018-01-25T08:16:28.783Z,76.27
2018-01-25T08:18:56.693Z,77.00
2018-01-25T08:21:24.464Z,77.83
2018-01-25T08:23:52.170Z,77.77
2018-01-25T08:26:19.739Z,74.33
2018-01-25T08:28:47.458Z,64.13
2018-01-25T08:31:15.162Z,62.07
2018-01-25T08:33:42.757Z,58.10
2018-01-25T08:36:10.383Z,55.63
2018-01-25T08:38:38.152Z,56.70
2018-01-25T08:41:05.732Z,60.00
2018-01-25T08:43:33.300Z,56.30
2018-01-25T08:46:00.974Z,57.17
2018-01-25T08:48:28.517Z,56.60
2018-01-25T08:50:56.284Z,57.13
2018-01-25T08:53:23.976Z,58.73
2018-01-25T08:55:51.583Z,56.03
2018-01-25T08:58:19.185Z,58.77
2018-01-25T09:00:46.862Z,58.30
2018-01-25T09:03:14.398Z,57.57
2018-01-25T09:05:41.945Z,55.33
2018-01-25T09:08:09.605Z,53.30
2018-01-25T09:10:37.867Z,47.30
2018-01-25T09:13:05.865Z,47.00
2018-01-25T09:15:33.524Z,50.20
2018-01-25T09:18:01.112Z,47.87
2018-01-25T09:20:28.647Z,44.83
2018-01-25T09:22:56.364Z,46.10
2018-01-25T09:25:23.927Z,46.13
2018-01-25T09:27:51.513Z,43.73
2018-01-25T09:30:19.188Z,43.97
2018-01-25T09:32:46.753Z,44.20
2018-01-25T09:35:14.514Z,44.97
2018-01-25T09:37:42.190Z,44.97
2018-01-25T09:40:10.728Z,28.80
2018-01-25T09:42:38.348Z,28.90
2018-01-25T09:45:06.178Z,30.87
2018-01-25T09:47:33.804Z,32.13
2018-01-25T09:50:01.425Z,33.80
2018-01-25T09:52:29.196Z,35.67
2018-01-25T09:54:56.804Z,34.67
2018-01-25T09:57:24.441Z,37.60
2018-01-25T09:59:52.256Z,36.73
2018-01-25T10:02:20.029Z,37.63
2018-01-25T10:04:47.691Z,37.67
2018-01-25T10:07:15.302Z,39.40
2018-01-25T10:09:43.078Z,37.50
2018-01-25T10:12:10.688Z,39.43
2018-01-25T10:14:38.302Z,49.10
2018-01-25T10:17:05.958Z,54.27
2018-01-25T10:19:33.486Z,55.63
2018-01-25T10:22:01.059Z,61.70
2018-01-25T10:24:28.852Z,63.07
2018-01-25T10:26:56.676Z,69.77
2018-01-25T10:29:24.534Z,68.13
2018-01-25T10:31:52.204Z,66.93
2018-01-25T10:34:19.808Z,69.70
2018-01-25T10:36:47.408Z,75.30
2018-01-25T10:39:15.134Z,79.30
2018-01-25T10:41:42.694Z,79.10
2018-01-25T10:44:10.234Z,82.47
2018-01-25T10:46:37.937Z,83.00
2018-01-25T10:49:05.548Z,80.83
2018-01-25T10:51:33.127Z,80.07
2018-01-25T10:54:00.794Z,80.87
2018-01-25T10:56:28.571Z,79.27
2018-01-25T10:58:56.162Z,77.63
2018-01-25T11:01:29.355Z,77.07
2018-01-25T11:03:57.113Z,77.93
2018-01-25T11:06:24.741Z,75.40
2018-01-25T11:08:52.445Z,75.83
2018-01-25T11:11:20.008Z,73.97
2018-01-25T11:13:47.785Z,74.23
2018-01-25T11:16:15.456Z,74.00
2018-01-25T11:18:43.046Z,73.60
2018-01-25T11:21:10.645Z,77.10
2018-01-25T11:23:38.314Z,76.20
2018-01-25T11:26:05.926Z,73.30
2018-01-25T11:28:33.501Z,72.63
2018-01-25T11:31:01.189Z,67.00
2018-01-25T11:33:28.958Z,70.17
2018-01-25T11:35:56.538Z,70.10
2018-01-25T11:38:24.279Z,68.93
2018-01-25T11:40:52.113Z,66.43
2018-01-25T11:43:19.810Z,70.70
2018-01-25T11:45:47.507Z,69.40
2018-01-25T11:48:15.108Z,69.10
2018-01-25T11:50:42.889Z,71.93
2018-01-25T11:53:10.636Z,70.00
2018-01-25T11:55:38.235Z,68.27
2018-01-25T11:58:06.531Z,67.57
2018-01-25T12:00:34.239Z,64.50
2018-01-25T12:03:02.201Z,64.33
2018-01-25T12:05:29.777Z,65.47
2018-01-25T12:07:57.437Z,67.27
2018-01-25T12:10:25.025Z,63.67
2018-01-25T12:12:52.797Z,63.83
2018-01-25T12:15:20.496Z,61.47
2018-01-25T12:17:48.069Z,63.83
2018-01-25T12:20:15.818Z,62.60
2018-01-25T12:22:43.483Z,60.13
2018-01-25T12:25:11.100Z,62.03
2018-01-25T12:27:38.940Z,60.20
2018-01-25T12:30:06.752Z,61.70
2018-01-25T12:32:34.337Z,60.90
2018-01-25T12:35:01.876Z,59.77
2018-01-25T12:37:29.551Z,61.90
2018-01-25T12:39:57.201Z,60.10
2018-01-25T12:42:24.750Z,61.03
2018-01-25T12:44:52.412Z,62.00
2018-01-25T12:47:19.975Z,62.30
2018-01-25T12:49:47.566Z,64.90
2018-01-25T12:52:15.248Z,61.33
2018-01-25T12:54:42.792Z,61.30
2018-01-25T12:57:10.435Z,62.10
2018-01-25T12:59:38.097Z,63.67
2018-01-25T13:02:05.806Z,61.53
2018-01-25T13:04:33.385Z,58.50
2018-01-25T13:07:00.966Z,60.97
2018-01-25T13:09:28.640Z,57.77
2018-01-25T13:11:56.193Z,59.60
2018-01-25T13:14:23.779Z,59.63
2018-01-25T13:16:51.448Z,55.73
2018-01-25T13:19:18.993Z,56.57
2018-01-25T13:21:46.770Z,60.80
2018-01-25T13:24:14.448Z,56.13
2018-01-25T13:26:42.257Z,57.13
2018-01-25T13:29:09.825Z,58.00
2018-01-25T13:31:37.720Z,58.57
2018-01-25T13:34:05.616Z,58.20
2018-01-25T13:36:33.383Z,55.13
2018-01-25T13:39:01.039Z,55.07
2018-01-25T13:41:28.606Z,56.20
2018-01-25T13:43:56.137Z,52.93
2018-01-25T13:46:23.816Z,50.07
2018-01-25T13:48:51.337Z,47.27
2018-01-25T13:51:18.910Z,44.23
2018-01-25T13:53:46.623Z,40.20
2018-01-25T13:56:14.711Z,32.43
2018-01-25T13:58:42.311Z,34.07
2018-01-25T14:01:10.396Z,32.30
2018-01-25T14:03:38.954Z,35.83
2018-01-25T14:06:06.529Z,34.07
2018-01-25T14:08:34.229Z,35.77
2018-01-25T14:11:01.795Z,33.50
2018-01-25T14:13:29.371Z,34.37
2018-01-25T14:15:57.096Z,36.20
2018-01-25T14:18:24.948Z,38.27
2018-01-25T14:20:52.585Z,38.43
2018-01-25T14:23:20.273Z,36.93
2018-01-25T14:25:48.498Z,38.93
2018-01-25T14:28:16.072Z,39.57
2018-01-25T14:30:43.878Z,39.37
2018-01-25T14:33:11.606Z,39.40
2018-01-25T14:35:39.188Z,39.87
2018-01-25T14:38:06.858Z,39.90
2018-01-25T14:40:35.194Z,41.53
2018-01-25T14:43:02.815Z,41.87
2018-01-25T14:45:31.175Z,39.80
2018-01-25T14:47:59.941Z,39.23
2018-01-25T14:50:27.832Z,38.50
2018-01-25T14:52:56.330Z,39.93
2018-01-25T14:55:24.121Z,34.93
2018-01-25T14:57:51.708Z,34.30
2018-01-25T15:00:19.414Z,34.40
2018-01-25T15:02:47.005Z,35.70
2018-01-25T15:05:14.670Z,33.40
2018-01-25T15:07:42.350Z,33.30
2018-01-25T15:10:09.909Z,33.80
2018-01-25T15:12:37.513Z,34.80
2018-01-25T15:15:05.191Z,31.40
2018-01-25T15:17:32.784Z,35.07
2018-01-25T15:20:00.389Z,31.67
2018-01-25T15:22:28.075Z,33.83
2018-01-25T15:25:01.198Z,35.90
2018-01-25T15:27:33.912Z,40.27
2018-01-25T15:30:01.702Z,40.20
2018-01-25T15:32:29.357Z,45.20
2018-01-25T15:34:56.969Z,47.17
2018-01-25T15:37:24.629Z,53.73
2018-01-25T15:39:52.614Z,55.97
2018-01-25T15:42:20.510Z,54.33
2018-01-25T15:44:48.104Z,52.40
2018-01-25T15:47:15.818Z,52.20
2018-01-25T15:49:43.800Z,47.93
2018-01-25T15:52:11.584Z,50.20
2018-01-25T15:54:39.274Z,45.47
2018-01-25T15:57:06.833Z,47.73
2018-01-25T15:59:34.426Z,49.60
2018-01-25T16:02:02.141Z,50.53
2018-01-25T16:04:29.916Z,55.07
2018-01-25T16:06:57.504Z,63.83
2018-01-25T16:09:25.216Z,71.27
2018-01-25T16:11:52.841Z,103.43
2018-01-25T16:14:21.200Z,39.50
2018-01-25T16:16:48.878Z,40.63
2018-01-25T16:19:16.439Z,62.40
2018-01-25T16:21:44.001Z,54.70
2018-01-25T16:24:12.006Z,52.67
2018-01-25T16:26:39.812Z,48.77
2018-01-25T16:29:07.673Z,52.27
2018-01-25T16:31:35.454Z,47.87
2018-01-25T16:34:03.206Z,48.90
2018-01-25T16:36:30.947Z,49.93
2018-01-25T16:38:58.686Z,49.13
2018-01-25T16:41:26.349Z,49.83
2018-01-25T16:43:54.710Z,49.33
2018-01-25T16:46:22.536Z,48.57
2018-01-25T16:48:51.098Z,49.43
2018-01-25T16:51:18.760Z,50.43
2018-01-25T16:53:46.476Z,46.27
2018-01-25T16:56:14.104Z,47.50
2018-01-25T16:58:42.068Z,45.03
2018-01-25T17:01:09.782Z,49.17
2018-01-25T17:03:37.536Z,48.00
2018-01-25T17:06:05.121Z,35.70
2018-01-25T17:08:32.832Z,41.03
2018-01-25T17:11:00.533Z,41.37
2018-01-25T17:13:28.134Z,45.50
2018-01-25T17:15:55.955Z,41.77
2018-01-25T17:18:23.466Z,42.70
2018-01-25T17:20:51.021Z,45.00
2018-01-25T17:23:18.696Z,42.90
2018-01-25T17:25:46.518Z,42.60
2018-01-25T17:28:14.062Z,42.00
2018-01-25T17:30:41.780Z,40.60
2018-01-25T17:33:09.554Z,44.80
2018-01-25T17:35:37.089Z,44.00
2018-01-25T17:38:04.748Z,44.27
2018-01-25T17:40:32.817Z,43.37
2018-01-25T17:43:00.490Z,46.07
2018-01-25T17:45:28.405Z,45.50
2018-01-25T17:47:55.924Z,45.17
2018-01-25T17:50:23.508Z,44.00
2018-01-25T17:52:51.168Z,44.73
2018-01-25T17:55:18.740Z,45.27
2018-01-25T17:57:46.316Z,44.47
2018-01-25T18:00:13.990Z,46.23
2018-01-25T18:02:41.765Z,46.17
2018-01-25T18:05:09.330Z,45.90
2018-01-25T18:07:37.012Z,46.97
2018-01-25T18:10:04.528Z,48.20
2018-01-25T18:12:32.045Z,46.93
2018-01-25T18:14:59.701Z,48.63
2018-01-25T18:17:27.636Z,46.27
2018-01-25T18:19:55.291Z,43.92
2018-01-25T18:22:22.950Z,40.40
2018-01-25T18:24:50.516Z,94.33
2018-01-25T18:27:18.074Z,401.90
2018-01-25T18:29:45.761Z,351.17
2018-01-25T18:32:13.549Z,135.37
2018-01-25T18:34:41.396Z,78.73
2018-01-25T18:37:09.532Z,57.93
2018-01-25T18:39:37.247Z,56.27
2018-01-25T18:42:05.991Z,55.40
2018-01-25T18:44:33.817Z,54.80
2018-01-25T18:47:01.530Z,48.87
2018-01-25T18:49:29.336Z,50.10
2018-01-25T18:51:57.801Z,47.80
2018-01-25T18:54:25.611Z,38.27
2018-01-25T18:56:53.303Z,39.53
2018-01-25T18:59:21.148Z,42.05
2018-01-25T19:01:49.370Z,46.57
2018-01-25T19:04:16.901Z,42.10
2018-01-25T19:06:46.144Z,43.33
2018-01-25T19:09:14.442Z,43.72
2018-01-25T19:12:09.890Z,163.60
2018-01-25T19:14:38.718Z,323.90
2018-01-25T19:17:06.252Z,301.40
2018-01-25T19:19:35.230Z,360.10
2018-01-25T19:22:02.933Z,344.70
2018-01-25T19:24:30.657Z,375.23
2018-01-25T19:26:59.088Z,367.40
2018-01-25T19:29:26.840Z,354.25
2018-01-25T19:31:54.541Z,365.90
2018-01-25T19:34:22.125Z,384.73
2018-01-25T19:36:50.713Z,373.73
2018-01-25T19:39:18.376Z,373.05
2018-01-25T19:41:46.840Z,360.65
2018-01-25T19:44:14.404Z,364.92
2018-01-25T19:46:42.798Z,360.20
2018-01-25T19:49:10.782Z,365.58
2018-01-25T19:51:38.382Z,305.42
2018-01-25T19:54:06.486Z,345.88
2018-01-25T19:56:34.797Z,365.50
2018-01-25T19:59:02.460Z,353.67
2018-01-25T20:01:30.212Z,341.92
2018-01-25T20:03:58.160Z,343.12
2018-01-25T20:06:27.383Z,333.77
2018-01-25T20:08:55.918Z,333.90
2018-01-25T20:11:23.714Z,346.62
2018-01-25T20:13:51.585Z,344.70
2018-01-25T20:16:19.312Z,359.45
2018-01-25T20:18:48.566Z,418.00
2018-01-25T20:21:16.190Z,340.92
2018-01-25T20:23:43.864Z,228.43
2018-01-25T20:26:11.423Z,135.73
2018-01-25T20:28:39.012Z,111.50
2018-01-25T20:31:06.729Z,104.63
2018-01-25T20:33:34.345Z,92.15
2018-01-25T20:36:02.136Z,80.65
2018-01-25T20:38:29.814Z,80.22
2018-01-25T20:40:57.382Z,74.18
2018-01-25T20:43:25.364Z,76.32
2018-01-25T20:45:53.074Z,80.35
2018-01-25T20:48:20.879Z,88.20
2018-01-25T20:50:48.403Z,90.60
2018-01-25T20:53:16.154Z,102.68
2018-01-25T20:55:43.819Z,149.90
2018-01-25T20:58:11.565Z,179.73
2018-01-25T21:00:39.238Z,191.27
2018-01-25T21:03:07.051Z,266.58
2018-01-25T21:05:34.627Z,235.50
2018-01-25T21:08:03.144Z,222.70
2018-01-25T21:10:30.689Z,260.67
2018-01-25T21:12:58.217Z,241.93
2018-01-25T21:15:25.874Z,196.20
2018-01-25T21:17:53.398Z,144.18
2018-01-25T21:20:20.996Z,126.75
2018-01-25T21:22:48.667Z,131.50
2018-01-25T21:25:16.202Z,115.78
2018-01-25T21:27:43.759Z,104.50
2018-01-25T21:30:11.491Z,107.30
2018-01-25T21:32:39.013Z,114.40
2018-01-25T21:35:06.556Z,110.82
2018-01-25T21:37:34.210Z,117.30
2018-01-25T21:40:02.008Z,120.47
2018-01-25T21:42:29.564Z,116.30
2018-01-25T21:44:57.238Z,132.77
2018-01-25T21:47:24.780Z,139.50
2018-01-25T21:49:52.325Z,136.15
2018-01-25T21:52:20.109Z,124.70
2018-01-25T21:54:48.474Z,116.55
2018-01-25T21:57:16.910Z,114.82
2018-01-25T21:59:44.651Z,120.35
2018-01-25T22:02:12.327Z,118.72
2018-01-25T22:04:40.075Z,124.78
2018-01-25T22:07:07.975Z,142.95
2018-01-25T22:09:35.632Z,156.37
2018-01-25T22:12:03.196Z,183.75
2018-01-25T22:14:31.013Z,146.10
2018-01-25T22:16:58.670Z,164.20
2018-01-25T22:19:26.543Z,198.10
2018-01-25T22:21:54.069Z,195.23
2018-01-25T22:24:21.772Z,192.18
2018-01-25T22:26:49.314Z,181.57
2018-01-25T22:29:16.845Z,181.60
2018-01-25T22:31:44.482Z,152.85
2018-01-25T22:34:12.286Z,171.85
2018-01-25T22:36:39.871Z,176.35
2018-01-25T22:39:07.516Z,200.82
2018-01-25T22:41:35.065Z,190.75
2018-01-25T22:44:02.589Z,189.85
2018-01-25T22:46:30.283Z,188.85
2018-01-25T22:48:57.801Z,203.65
2018-01-25T22:51:25.550Z,181.43
2018-01-25T22:53:53.232Z,191.75
2018-01-25T22:56:20.758Z,184.40
2018-01-25T22:58:48.290Z,212.25
2018-01-25T23:01:18.847Z,218.35
2018-01-25T23:03:46.404Z,223.95
2018-01-25T23:06:13.974Z,233.98
2018-01-25T23:08:41.627Z,228.52
2018-01-25T23:11:09.157Z,217.37
2018-01-25T23:13:36.680Z,208.27
2018-01-25T23:16:04.338Z,201.32
2018-01-25T23:18:31.859Z,197.13
2018-01-25T23:20:59.383Z,193.70
2018-01-25T23:23:27.034Z,201.15
2018-01-25T23:25:54.583Z,185.23
2018-01-25T23:28:22.120Z,178.20
2018-01-25T23:30:49.836Z,190.38
2018-01-25T23:33:17.366Z,197.13
2018-01-25T23:35:46.152Z,189.62
2018-01-25T23:38:13.832Z,191.62
2018-01-25T23:40:41.374Z,188.95
2018-01-25T23:43:09.024Z,162.75
2018-01-25T23:45:37.063Z,161.07
2018-01-25T23:48:04.827Z,152.35
2018-01-25T23:50:32.363Z,146.40
2018-01-25T23:53:00.780Z,142.93
2018-01-25T23:55:28.701Z,131.00
2018-01-25T23:57:56.255Z,137.35
